createdAt,value
2023-03-29T00:01:42.710Z,-0.52
2023-03-29T00:04:20.261Z,-0.54
2023-03-29T00:06:54.186Z,-0.56
2023-03-29T00:09:28.318Z,-0.59
2023-03-29T00:12:02.826Z,-0.61
2023-03-29T00:14:36.677Z,-0.63
2023-03-29T00:17:10.380Z,-0.65
2023-03-29T00:19:47.228Z,-0.68
2023-03-29T00:22:20.390Z,-0.70
2023-03-29T00:24:56.080Z,-0.72
2023-03-29T00:27:29.592Z,-0.74
2023-03-29T00:30:04.514Z,-0.76
2023-03-29T00:32:38.809Z,-0.78
2023-03-29T00:35:12.807Z,-0.80
2023-03-29T00:37:47.499Z,-0.81
2023-03-29T00:40:21.371Z,-0.80
2023-03-29T00:42:56.459Z,-0.80
2023-03-29T00:45:31.957Z,-0.78
2023-03-29T00:48:07.813Z,-0.77
2023-03-29T00:50:45.863Z,-0.78
2023-03-29T00:53:23.356Z,-0.78
2023-03-29T00:56:02.057Z,-0.80
2023-03-29T00:58:40.921Z,-0.83
2023-03-29T01:01:21.054Z,-0.87
2023-03-29T01:04:01.201Z,-0.91
2023-03-29T01:06:39.764Z,-0.94
2023-03-29T01:09:14.539Z,-0.97
2023-03-29T01:11:53.507Z,-1.01
2023-03-29T01:14:34.168Z,-1.03
2023-03-29T01:17:09.030Z,-1.05
2023-03-29T01:19:50.633Z,-1.08
2023-03-29T01:22:34.186Z,-1.10
2023-03-29T01:25:18.112Z,-1.10
2023-03-29T01:27:57.133Z,-1.11
2023-03-29T01:30:36.066Z,-1.13
2023-03-29T01:33:21.585Z,-1.16
2023-03-29T01:36:02.724Z,-1.18
2023-03-29T01:38:44.230Z,-1.20
2023-03-29T01:41:18.175Z,-1.23
2023-03-29T01:43:57.604Z,-1.23
2023-03-29T01:46:41.744Z,-1.20
2023-03-29T01:49:24.602Z,-1.16
2023-03-29T01:52:03.157Z,-1.13
2023-03-29T01:54:40.125Z,-1.11
2023-03-29T01:57:14.809Z,-1.11
2023-03-29T01:59:50.552Z,-1.11
2023-03-29T02:02:26.410Z,-1.09
2023-03-29T02:05:02.621Z,-1.10
2023-03-29T02:07:38.941Z,-1.12
2023-03-29T02:10:16.723Z,-1.13
2023-03-29T02:12:50.995Z,-1.14
2023-03-29T02:15:25.591Z,-1.16
2023-03-29T02:17:59.004Z,-1.18
2023-03-29T02:20:37.158Z,-1.20
2023-03-29T02:23:15.822Z,-1.23
2023-03-29T02:25:50.775Z,-1.25
2023-03-29T02:28:26.464Z,-1.28
2023-03-29T02:31:05.035Z,-1.30
2023-03-29T02:33:46.392Z,-1.28
2023-03-29T02:36:24.230Z,-1.26
2023-03-29T02:39:01.012Z,-1.24
2023-03-29T02:41:36.559Z,-1.23
2023-03-29T02:44:14.442Z,-1.24
2023-03-29T02:46:51.396Z,-1.24
2023-03-29T02:49:25.661Z,-1.24
2023-03-29T02:52:03.478Z,-1.24
2023-03-29T02:54:44.007Z,-1.26
2023-03-29T02:57:17.995Z,-1.29
2023-03-29T02:59:51.904Z,-1.33
2023-03-29T03:02:26.386Z,-1.35
2023-03-29T03:05:00.559Z,-1.36
2023-03-29T03:07:34.986Z,-1.37
2023-03-29T03:10:10.634Z,-1.39
2023-03-29T03:12:44.126Z,-1.40
2023-03-29T03:15:18.140Z,-1.41
2023-03-29T03:17:51.898Z,-1.40
2023-03-29T03:20:26.932Z,-1.39
2023-03-29T03:23:03.774Z,-1.38
2023-03-29T03:25:37.644Z,-1.39
2023-03-29T03:28:11.683Z,-1.39
2023-03-29T03:30:46.029Z,-1.40
2023-03-29T03:33:47.349Z,-1.41
2023-03-29T03:36:41.499Z,-1.43
2023-03-29T03:39:15.510Z,-1.46
2023-03-29T03:41:49.660Z,-1.48
2023-03-29T03:44:23.824Z,-1.51
2023-03-29T03:47:14.133Z,-1.52
2023-03-29T03:49:48.513Z,-1.53
2023-03-29T03:52:23.004Z,-1.51
2023-03-29T03:54:57.536Z,-1.49
2023-03-29T03:57:55.079Z,-1.49
2023-03-29T04:00:30.068Z,-1.47
2023-03-29T04:03:26.415Z,-1.46
2023-03-29T04:06:03.638Z,-1.48
2023-03-29T04:08:46.630Z,-1.48
2023-03-29T04:11:31.202Z,-1.49
2023-03-29T04:14:05.282Z,-1.50
2023-03-29T04:17:05.056Z,-1.51
2023-03-29T04:20:12.961Z,-1.53
2023-03-29T04:22:47.426Z,-1.53
2023-03-29T04:25:21.821Z,-1.51
2023-03-29T04:28:16.007Z,-1.49
2023-03-29T04:31:14.769Z,-1.46
2023-03-29T04:34:04.101Z,-1.43
2023-03-29T04:36:38.171Z,-1.39
2023-03-29T04:39:14.852Z,-1.37
2023-03-29T04:41:50.512Z,-1.37
2023-03-29T04:44:28.443Z,-1.36
2023-03-29T04:47:03.806Z,-1.35
2023-03-29T04:49:40.603Z,-1.33
2023-03-29T04:52:17.851Z,-1.32
2023-03-29T04:54:51.845Z,-1.30
2023-03-29T04:57:31.818Z,-1.27
2023-03-29T05:00:20.966Z,-1.21
2023-03-29T05:03:11.931Z,-1.14
2023-03-29T05:05:48.610Z,-1.05
2023-03-29T05:08:22.487Z,-0.92
2023-03-29T05:11:20.176Z,-0.51
2023-03-29T05:13:56.006Z,0.02
2023-03-29T05:16:30.527Z,0.22
2023-03-29T05:19:04.322Z,0.25
2023-03-29T05:21:38.902Z,0.22
2023-03-29T05:24:14.738Z,0.22
2023-03-29T05:27:05.313Z,0.17
2023-03-29T05:29:40.440Z,0.13
2023-03-29T05:32:42.138Z,0.09
2023-03-29T05:35:16.535Z,0.10
2023-03-29T05:37:51.909Z,0.18
2023-03-29T05:40:27.333Z,0.36
2023-03-29T05:43:27.775Z,0.57
2023-03-29T05:46:01.931Z,1.37
2023-03-29T05:48:37.705Z,2.77
2023-03-29T05:51:11.956Z,3.99
2023-03-29T05:53:45.697Z,4.66
2023-03-29T05:56:19.471Z,5.11
2023-03-29T05:58:55.209Z,5.96
2023-03-29T06:01:31.036Z,6.26
2023-03-29T06:04:12.779Z,6.66
2023-03-29T06:06:53.477Z,7.02
2023-03-29T06:09:30.296Z,7.21
2023-03-29T06:12:12.530Z,7.28
2023-03-29T06:14:52.657Z,7.33
2023-03-29T06:17:32.098Z,7.14
2023-03-29T06:20:09.300Z,7.00
2023-03-29T06:22:44.534Z,6.89
2023-03-29T06:25:18.823Z,6.78
2023-03-29T06:27:54.791Z,6.94
2023-03-29T06:30:29.180Z,7.98
2023-03-29T06:33:03.980Z,9.40
2023-03-29T06:35:58.450Z,11.09
2023-03-29T06:38:34.354Z,12.81
2023-03-29T06:41:34.715Z,14.43
2023-03-29T06:44:15.670Z,15.58
2023-03-29T06:46:57.988Z,17.04
2023-03-29T06:49:32.146Z,18.47
2023-03-29T06:52:21.231Z,19.81
2023-03-29T06:54:55.643Z,21.09
2023-03-29T06:57:31.062Z,22.32
2023-03-29T07:00:15.495Z,23.25
2023-03-29T07:03:10.890Z,24.46
2023-03-29T07:05:45.303Z,25.60
2023-03-29T07:08:22.877Z,26.49
2023-03-29T07:11:09.422Z,27.26
2023-03-29T07:14:00.650Z,27.86
2023-03-29T07:16:37.287Z,28.03
2023-03-29T07:19:27.737Z,28.05
2023-03-29T07:22:01.297Z,28.45
2023-03-29T07:24:46.424Z,28.58
2023-03-29T07:27:21.141Z,28.42
2023-03-29T07:29:57.314Z,27.93
2023-03-29T07:32:34.293Z,27.68
2023-03-29T07:35:31.043Z,28.16
2023-03-29T07:38:06.050Z,28.45
2023-03-29T07:40:40.244Z,28.80
2023-03-29T07:43:52.231Z,29.23
2023-03-29T07:46:31.096Z,29.40
2023-03-29T07:49:05.075Z,29.75
2023-03-29T07:51:38.589Z,30.26
2023-03-29T07:54:15.680Z,30.54
2023-03-29T07:57:04.847Z,30.43
2023-03-29T07:59:49.110Z,30.15
2023-03-29T08:02:27.881Z,30.61
2023-03-29T08:05:04.090Z,30.93
2023-03-29T08:07:49.746Z,30.73
2023-03-29T08:10:24.209Z,31.11
2023-03-29T08:13:14.845Z,31.38
2023-03-29T08:15:54.701Z,31.05
2023-03-29T08:18:39.672Z,31.40
2023-03-29T08:21:15.035Z,32.21
2023-03-29T08:23:51.452Z,32.37
2023-03-29T08:26:28.798Z,31.75
2023-03-29T08:29:03.410Z,31.14
2023-03-29T08:31:37.373Z,31.40
2023-03-29T08:34:11.388Z,31.31
2023-03-29T08:37:05.423Z,31.43
2023-03-29T08:39:48.949Z,31.01
2023-03-29T08:42:55.155Z,30.57
2023-03-29T08:45:37.474Z,30.82
2023-03-29T08:48:23.545Z,31.28
2023-03-29T08:51:03.379Z,31.32
2023-03-29T08:53:44.515Z,31.10
2023-03-29T08:56:38.130Z,30.90
2023-03-29T08:59:22.789Z,31.22
2023-03-29T09:01:59.436Z,31.75
2023-03-29T09:04:38.072Z,33.02
2023-03-29T09:07:41.129Z,33.76
2023-03-29T09:10:19.906Z,33.94
2023-03-29T09:13:05.072Z,34.22
2023-03-29T09:15:45.657Z,33.82
2023-03-29T09:18:38.241Z,33.22
2023-03-29T09:21:24.186Z,32.60
2023-03-29T09:24:19.413Z,32.53
2023-03-29T09:27:05.718Z,32.88
2023-03-29T09:30:11.888Z,32.65
2023-03-29T09:33:14.262Z,30.88
2023-03-29T09:36:12.494Z,28.13
2023-03-29T09:38:51.241Z,25.72
2023-03-29T09:41:30.960Z,23.76
2023-03-29T09:44:23.890Z,22.08
2023-03-29T09:47:10.151Z,20.55
2023-03-29T09:49:48.735Z,19.35
2023-03-29T09:52:22.981Z,19.09
2023-03-29T09:55:08.102Z,20.30
2023-03-29T09:58:02.952Z,21.97
2023-03-29T10:00:40.338Z,24.09
2023-03-29T10:03:21.582Z,26.04
2023-03-29T10:06:12.559Z,27.72
2023-03-29T10:08:52.367Z,28.06
2023-03-29T10:11:34.074Z,28.61
2023-03-29T10:14:14.249Z,29.89
2023-03-29T10:16:56.606Z,31.14
2023-03-29T10:19:35.121Z,31.15
2023-03-29T10:22:16.750Z,29.87
2023-03-29T10:24:54.077Z,27.67
2023-03-29T10:27:29.771Z,25.50
2023-03-29T10:30:10.605Z,23.62
2023-03-29T10:32:44.399Z,22.78
2023-03-29T10:35:23.229Z,23.43
2023-03-29T10:37:59.779Z,23.06
2023-03-29T10:40:35.697Z,21.67
2023-03-29T10:43:23.245Z,20.63
2023-03-29T10:46:07.157Z,20.69
2023-03-29T10:48:41.248Z,21.64
2023-03-29T10:51:18.728Z,22.31
2023-03-29T10:53:53.106Z,22.27
2023-03-29T10:56:43.426Z,22.55
2023-03-29T10:59:29.313Z,23.12
2023-03-29T11:02:40.296Z,23.51
2023-03-29T11:05:31.356Z,24.53
2023-03-29T11:08:22.676Z,25.77
2023-03-29T11:11:06.615Z,26.61
2023-03-29T11:13:47.408Z,26.73
2023-03-29T11:16:32.787Z,26.64
2023-03-29T11:19:37.911Z,27.50
2023-03-29T11:22:20.042Z,28.43
2023-03-29T11:25:11.536Z,29.10
2023-03-29T11:27:53.909Z,29.89
2023-03-29T11:30:38.819Z,30.73
2023-03-29T11:33:29.357Z,30.24
2023-03-29T11:36:12.958Z,29.92
2023-03-29T11:38:57.517Z,29.92
2023-03-29T11:41:37.141Z,29.78
2023-03-29T11:44:16.732Z,28.97
2023-03-29T11:46:56.654Z,28.31
2023-03-29T11:49:35.790Z,27.61
2023-03-29T11:52:15.360Z,26.75
2023-03-29T11:54:55.968Z,26.06
2023-03-29T11:57:36.888Z,26.17
2023-03-29T12:00:19.308Z,26.70
2023-03-29T12:02:58.819Z,27.11
2023-03-29T12:05:40.002Z,27.44
2023-03-29T12:08:22.133Z,28.21
2023-03-29T12:11:04.070Z,28.51
2023-03-29T12:13:44.630Z,27.70
2023-03-29T12:16:25.608Z,27.72
2023-03-29T12:19:05.050Z,28.49
2023-03-29T12:21:39.819Z,28.61
2023-03-29T12:24:17.833Z,28.45
2023-03-29T12:27:08.715Z,27.52
2023-03-29T12:30:00.279Z,26.41
2023-03-29T12:32:48.353Z,26.23
2023-03-29T12:35:54.775Z,26.48
2023-03-29T12:38:32.642Z,26.85
2023-03-29T12:41:28.267Z,27.30
2023-03-29T12:44:23.812Z,27.57
2023-03-29T12:47:03.133Z,28.00
2023-03-29T12:49:41.191Z,28.49
2023-03-29T12:52:29.076Z,28.89
2023-03-29T12:55:02.175Z,28.94
2023-03-29T12:57:46.146Z,28.45
2023-03-29T13:00:28.565Z,28.21
2023-03-29T13:03:07.781Z,27.91
2023-03-29T13:05:42.350Z,27.36
2023-03-29T13:08:28.408Z,26.70
2023-03-29T13:11:02.264Z,26.26
2023-03-29T13:13:38.744Z,25.93
2023-03-29T13:16:21.203Z,25.41
2023-03-29T13:19:19.931Z,25.07
2023-03-29T13:22:07.473Z,24.93
2023-03-29T13:25:01.632Z,25.12
2023-03-29T13:27:44.141Z,24.87
2023-03-29T13:30:44.409Z,24.41
2023-03-29T13:33:38.487Z,24.03
2023-03-29T13:36:24.600Z,23.83
2023-03-29T13:39:02.358Z,23.94
2023-03-29T13:41:50.705Z,23.72
2023-03-29T13:44:45.853Z,23.10
2023-03-29T13:47:38.786Z,22.56
2023-03-29T13:50:20.771Z,21.92
2023-03-29T13:53:05.784Z,21.40
2023-03-29T13:55:47.883Z,20.70
2023-03-29T13:58:34.259Z,19.86
2023-03-29T14:01:15.364Z,18.97
2023-03-29T14:03:51.945Z,18.30
2023-03-29T14:06:29.636Z,17.71
2023-03-29T14:09:08.525Z,17.16
2023-03-29T14:11:46.209Z,16.62
2023-03-29T14:14:24.418Z,16.16
2023-03-29T14:16:58.800Z,15.83
2023-03-29T14:19:37.931Z,15.49
2023-03-29T14:22:17.357Z,15.24
2023-03-29T14:24:57.257Z,15.05
2023-03-29T14:27:37.561Z,14.82
2023-03-29T14:30:27.917Z,14.48
2023-03-29T14:33:05.624Z,14.27
2023-03-29T14:35:40.737Z,14.11
2023-03-29T14:38:17.033Z,13.94
2023-03-29T14:40:50.884Z,13.82
2023-03-29T14:43:30.429Z,13.74
2023-03-29T14:46:08.680Z,13.60
2023-03-29T14:48:42.675Z,13.49
2023-03-29T14:51:17.158Z,13.42
2023-03-29T14:53:52.130Z,13.38
2023-03-29T14:56:26.916Z,13.35
2023-03-29T14:59:01.879Z,13.30
2023-03-29T15:01:45.194Z,13.26
2023-03-29T15:04:18.564Z,13.24
2023-03-29T15:06:53.126Z,13.19
2023-03-29T15:09:30.237Z,13.12
2023-03-29T15:12:05.353Z,13.12
2023-03-29T15:14:39.083Z,13.08
2023-03-29T15:17:42.665Z,12.99
2023-03-29T15:20:26.667Z,12.86
2023-03-29T15:23:05.703Z,12.82
2023-03-29T15:25:40.807Z,12.69
2023-03-29T15:28:29.240Z,12.64
2023-03-29T15:31:08.269Z,12.68
2023-03-29T15:33:43.899Z,12.76
2023-03-29T15:36:18.352Z,12.76
2023-03-29T15:38:52.242Z,12.70
2023-03-29T15:41:27.510Z,12.62
2023-03-29T15:44:01.727Z,12.52
2023-03-29T15:46:35.585Z,12.51
2023-03-29T15:49:11.338Z,12.53
2023-03-29T15:51:45.469Z,12.55
2023-03-29T15:54:19.242Z,12.59
2023-03-29T15:56:55.985Z,12.63
2023-03-29T15:59:30.209Z,12.64
2023-03-29T16:02:04.139Z,12.63
2023-03-29T16:04:38.248Z,12.56
2023-03-29T16:07:15.245Z,12.49
2023-03-29T16:09:49.259Z,12.44
2023-03-29T16:12:23.398Z,12.35
2023-03-29T16:14:57.451Z,12.11
2023-03-29T16:17:31.614Z,11.86
2023-03-29T16:20:07.579Z,11.64
2023-03-29T16:22:41.637Z,11.51
2023-03-29T16:25:18.152Z,11.40
2023-03-29T16:27:52.888Z,11.27
2023-03-29T16:30:27.265Z,11.15
2023-03-29T16:33:01.500Z,11.07
2023-03-29T16:35:37.337Z,10.98
2023-03-29T16:38:11.846Z,10.86
2023-03-29T16:40:45.477Z,10.74
2023-03-29T16:43:20.345Z,10.60
2023-03-29T16:45:54.333Z,10.50
2023-03-29T16:48:28.494Z,10.42
2023-03-29T16:51:03.580Z,10.31
2023-03-29T16:53:37.527Z,10.21
2023-03-29T16:56:12.408Z,10.13
2023-03-29T16:58:46.945Z,10.05
2023-03-29T17:01:23.031Z,9.99
2023-03-29T17:03:57.474Z,9.92
2023-03-29T17:06:32.516Z,9.86
2023-03-29T17:09:07.932Z,9.85
2023-03-29T17:11:42.577Z,9.82
2023-03-29T17:14:16.297Z,9.79
2023-03-29T17:16:49.870Z,9.76
2023-03-29T17:19:24.746Z,9.71
2023-03-29T17:22:00.453Z,9.65
2023-03-29T17:24:34.304Z,9.59
2023-03-29T17:27:12.522Z,9.52
2023-03-29T17:29:50.213Z,9.48
2023-03-29T17:32:25.220Z,9.44
2023-03-29T17:35:03.557Z,9.41
2023-03-29T17:37:36.328Z,9.38
2023-03-29T17:40:14.777Z,9.32
2023-03-29T17:42:50.721Z,9.28
2023-03-29T17:45:27.010Z,9.23
2023-03-29T17:48:06.477Z,9.18
2023-03-29T17:50:44.775Z,9.13
2023-03-29T17:53:21.077Z,9.08
2023-03-29T17:55:56.745Z,9.03
2023-03-29T17:58:34.224Z,9.01
2023-03-29T18:01:13.251Z,8.97
2023-03-29T18:03:48.789Z,8.95
2023-03-29T18:06:26.011Z,8.91
2023-03-29T18:09:02.317Z,8.88
2023-03-29T18:11:39.381Z,8.86
2023-03-29T18:14:14.707Z,8.85
2023-03-29T18:16:50.909Z,8.80
2023-03-29T18:19:28.678Z,8.77
2023-03-29T18:22:05.315Z,8.77
2023-03-29T18:24:45.658Z,8.73
2023-03-29T18:27:23.070Z,8.71
2023-03-29T18:30:00.820Z,8.69
2023-03-29T18:32:37.571Z,8.64
2023-03-29T18:35:16.397Z,8.62
2023-03-29T18:37:54.056Z,8.61
2023-03-29T18:40:30.839Z,8.60
2023-03-29T18:43:09.546Z,8.61
2023-03-29T18:45:47.822Z,8.60
2023-03-29T18:48:21.864Z,8.57
2023-03-29T18:50:58.229Z,8.52
2023-03-29T18:53:33.242Z,8.47
2023-03-29T18:56:17.767Z,8.44
2023-03-29T18:58:55.205Z,8.43
2023-03-29T19:01:34.633Z,8.41
2023-03-29T19:04:14.046Z,8.38
2023-03-29T19:06:50.361Z,8.36
2023-03-29T19:09:28.446Z,8.36
2023-03-29T19:12:07.802Z,8.34
2023-03-29T19:14:44.248Z,8.29
2023-03-29T19:17:22.149Z,8.25
2023-03-29T19:19:59.960Z,8.22
2023-03-29T19:22:36.046Z,8.19
2023-03-29T19:25:15.563Z,8.16
2023-03-29T19:27:53.100Z,8.14
2023-03-29T19:30:34.691Z,8.14
2023-03-29T19:33:11.353Z,8.14
2023-03-29T19:35:48.565Z,8.13
2023-03-29T19:38:25.075Z,8.09
2023-03-29T19:41:02.588Z,8.04
2023-03-29T19:43:38.585Z,8.03
2023-03-29T19:46:17.863Z,7.99
2023-03-29T19:48:57.735Z,7.96
2023-03-29T19:51:37.790Z,7.91
2023-03-29T19:54:14.691Z,7.88
2023-03-29T19:56:52.457Z,7.87
2023-03-29T19:59:29.479Z,7.87
2023-03-29T20:02:06.704Z,7.84
2023-03-29T20:04:41.923Z,7.82
2023-03-29T20:07:20.151Z,7.82
2023-03-29T20:09:56.159Z,7.82
2023-03-29T20:12:30.990Z,7.80
2023-03-29T20:15:06.484Z,7.77
2023-03-29T20:17:44.051Z,7.72
2023-03-29T20:20:20.719Z,7.68
2023-03-29T20:23:05.034Z,7.63
2023-03-29T20:25:41.087Z,7.56
2023-03-29T20:28:14.943Z,7.51
2023-03-29T20:30:51.996Z,7.48
2023-03-29T20:33:25.778Z,7.43
2023-03-29T20:36:00.393Z,7.40
2023-03-29T20:38:34.473Z,7.37
2023-03-29T20:41:09.293Z,7.33
2023-03-29T20:43:44.136Z,7.24
2023-03-29T20:46:18.646Z,7.17
2023-03-29T20:48:54.618Z,7.10
2023-03-29T20:51:30.727Z,7.01
2023-03-29T20:54:06.419Z,6.93
2023-03-29T20:56:42.749Z,6.84
2023-03-29T20:59:16.421Z,6.76
2023-03-29T21:01:50.578Z,6.69
2023-03-29T21:04:25.001Z,6.62
2023-03-29T21:07:00.969Z,6.57
2023-03-29T21:09:36.807Z,6.54
2023-03-29T21:12:11.274Z,6.50
2023-03-29T21:14:45.019Z,6.48
2023-03-29T21:17:19.121Z,6.47
2023-03-29T21:19:53.507Z,6.45
2023-03-29T21:22:28.226Z,6.42
2023-03-29T21:25:01.780Z,6.39
2023-03-29T21:27:36.348Z,6.38
2023-03-29T21:30:12.232Z,6.35
2023-03-29T21:32:46.240Z,6.32
2023-03-29T21:35:19.997Z,6.31
2023-03-29T21:37:53.743Z,6.31
2023-03-29T21:40:27.104Z,6.32
2023-03-29T21:43:00.878Z,6.33
2023-03-29T21:45:34.520Z,6.34
2023-03-29T21:48:08.537Z,6.36
2023-03-29T21:50:42.195Z,6.36
2023-03-29T21:53:16.528Z,6.36
2023-03-29T21:55:51.636Z,6.37
2023-03-29T21:58:25.493Z,6.36
2023-03-29T22:00:59.995Z,6.37
2023-03-29T22:03:34.189Z,6.39
2023-03-29T22:06:10.186Z,6.41
2023-03-29T22:08:44.048Z,6.39
2023-03-29T22:11:18.810Z,6.36
2023-03-29T22:13:54.686Z,6.32
2023-03-29T22:16:29.320Z,6.28
2023-03-29T22:19:02.928Z,6.25
2023-03-29T22:21:37.752Z,6.24
2023-03-29T22:24:11.249Z,6.21
2023-03-29T22:26:45.670Z,6.21
2023-03-29T22:29:19.089Z,6.22
2023-03-29T22:31:53.109Z,6.21
2023-03-29T22:34:27.013Z,6.17
2023-03-29T22:37:01.014Z,6.13
2023-03-29T22:39:35.957Z,6.10
2023-03-29T22:42:09.533Z,6.10
2023-03-29T22:44:43.173Z,6.12
2023-03-29T22:47:16.926Z,6.11
2023-03-29T22:49:50.729Z,6.12
2023-03-29T22:52:24.496Z,6.14
2023-03-29T22:54:58.071Z,6.17
2023-03-29T22:57:31.656Z,6.21
2023-03-29T23:00:09.419Z,6.22
2023-03-29T23:02:43.623Z,6.21
2023-03-29T23:05:17.556Z,6.18
2023-03-29T23:07:51.327Z,6.18
2023-03-29T23:10:29.245Z,6.18
2023-03-29T23:13:09.215Z,6.17
2023-03-29T23:15:47.670Z,6.19
2023-03-29T23:18:22.559Z,6.21
2023-03-29T23:20:58.689Z,6.22
2023-03-29T23:23:32.810Z,6.24
2023-03-29T23:26:06.592Z,6.25
2023-03-29T23:28:41.418Z,6.26
2023-03-29T23:31:18.799Z,6.26
2023-03-29T23:33:53.434Z,6.27
2023-03-29T23:36:31.515Z,6.27
2023-03-29T23:39:08.411Z,6.26
2023-03-29T23:41:41.908Z,6.26
2023-03-29T23:44:16.275Z,6.25
2023-03-29T23:46:50.291Z,6.25
2023-03-29T23:49:24.366Z,6.25
2023-03-29T23:52:00.589Z,6.25
2023-03-29T23:54:34.388Z,6.26
2023-03-29T23:57:07.937Z,6.27
2023-03-29T23:59:41.433Z,6.28
